Flight Track Log - Related Links

Times and Time Zones

All times are in EDT time to prevent confusion due to time zone crossing. See the ASQ5048 flight status page for this flight to view local times or setup timezone preferences in your user account.

Time Position Orientation Groundspeed Altitude Reporting Facility
EDT Latitude Longitude Course Direction KTS MPH feet Rate Location/Type
Fri 08:36:29 PM 40.8167 -73.9167 333° Northwest 182 209 3,100  Level New York TRACON
Fri 08:37:29 PM 40.8667 -73.9500 333° Northwest 252 290 5,500 2,700 Climbing New York TRACON
Fri 08:38:29 PM 40.8500 -74.0333 255° West 270 311 8,500 3,050 Climbing New York TRACON
Fri 08:39:29 PM 40.7833 -74.0500 191° South 269 310 11,600 1,750 Climbing New York TRACON
Fri 08:40:29 PM 40.7000 -74.1000 204° Southwest 316 364 12,000 434 Climbing New York TRACON
Fri 08:42:15 PM 40.5536 -74.1961 207° Southwest 356 410 12,800 1,193 Climbing New York Center
Fri 08:43:15 PM 40.4531 -74.2103 186° South 351 404 15,300 2,085 Climbing New York Center
Fri 08:44:13 PM 40.3633 -74.2194 184° South 365 420 16,900 857 Climbing New York Center
Fri 08:45:14 PM 40.2714 -74.2283 184° South 377 434 17,000 1,475 Climbing New York Center
Fri 08:47:12 PM 40.0558 -74.2472 184° South 371 427 21,300 1,670 Climbing Washington Center
Fri 08:48:10 PM 39.9544 -74.2978 201° Southwest 349 402 21,900 661 Climbing Washington Center
Fri 08:49:10 PM 39.8803 -74.3883 223° Southwest 351 404 22,600 1,000 Climbing Washington Center
Fri 08:50:10 PM 39.8083 -74.4814 225° Southwest 364 419 23,900 650 Climbing Washington Center
Fri 08:51:10 PM 39.7342 -74.5742 224° Southwest 370 426 23,900  Level Washington Center
Fri 08:52:11 PM 39.6558 -74.6725 224° Southwest 375 432 23,900  Level Washington Center
Fri 08:53:12 PM 39.5794 -74.7678 224° Southwest 380 437 23,900  Level Washington Center
Fri 08:54:10 PM 39.5050 -74.8600 224° Southwest 380 437 23,900  Level Washington Center
Fri 08:55:10 PM 39.4264 -74.9575 224° Southwest 380 437 23,900  Level Washington Center
Fri 08:56:11 PM 39.3519 -75.0522 225° Southwest 380 437 23,900  Level Washington Center
Fri 08:57:11 PM 39.2625 -75.1253 212° Southwest 380 437 23,900  Level Washington Center
Fri 08:58:09 PM 39.1544 -75.1742 199° South 388 447 23,900  Level Washington Center
Fri 08:59:10 PM 39.0481 -75.2200 199° South 401 461 23,900  Level Washington Center
Fri 09:00:11 PM 38.9419 -75.2608 197° South 407 468 23,900  Level Washington Center
Fri 09:01:12 PM 38.8358 -75.3092 200° South 407 468 23,900  Level Washington Center
Fri 09:02:10 PM 38.7275 -75.3547 198° South 407 468 23,900  Level Washington Center
Fri 09:03:12 PM 38.6211 -75.3978 198° South 407 468 23,900 -590 Level Washington Center
Fri 09:04:12 PM 38.5358 -75.4750 215° Southwest 402 463 22,700 -1,412 Descending Washington Center
Fri 09:05:11 PM 38.4775 -75.5811 235° Southwest 374 430 21,100 -1,550 Descending Washington Center
Fri 09:06:12 PM 38.4211 -75.6869 236° Southwest 367 422 19,600 -1,525 Descending Washington Center
Fri 09:07:09 PM 38.3647 -75.7903 235° Southwest 367 422 18,100 -1,576 Descending Washington Center
Fri 09:08:10 PM 38.3061 -75.8908 233° Southwest 362 417 16,500 -1,091 Descending Washington Center
Fri 09:09:10 PM 38.2497 -75.9883 234° Southwest 357 411 15,900 -1,200 Descending Washington Center
Fri 09:10:10 PM 38.1992 -76.0831 236° Southwest 352 405 14,100 -1,884 Descending Washington Center
Fri 09:11:11 PM 38.1489 -76.1700 234° Southwest 336 387 12,100 -1,934 Descending Washington Center
Fri 09:12:11 PM 38.1047 -76.2542 236° Southwest 315 362 10,200 -1,091 Descending Washington Center
Fri 09:13:12 PM 38.0603 -76.3328 234° Southwest 293 337 9,900 -153 Descending Washington Center
Fri 09:14:09 PM 38.0161 -76.4089 234° Southwest 281 323 9,900  Level Washington Center
Fri 09:15:10 PM 37.9758 -76.4847 236° Southwest 276 318 9,900  Level Washington Center
Fri 09:16:11 PM 37.9317 -76.5606 234° Southwest 271 312 9,900  Level Washington Center
Fri 09:17:12 PM 37.8892 -76.6364 235° Southwest 271 312 9,900 -694 Level Washington Center
Fri 09:18:12 PM 37.8489 -76.7094 235° Southwest 271 312 8,500 -1,700 Descending Washington Center
Fri 09:19:12 PM 37.8064 -76.7878 236° Southwest 271 312 6,500 -1,831 Descending Washington Center
Fri 09:20:10 PM 37.7683 -76.8581 236° Southwest 261 300 4,900 -1,462 Descending Washington Center
Fri 09:21:11 PM 37.7383 -76.9125 235° Southwest 240 276 3,600 -1,377 Descending Washington Center
Fri 09:22:12 PM 37.7106 -76.9725 240° Southwest 221 254 2,100 -857 Descending Washington Center
Fri 09:23:10 PM 37.6850 -77.0350 243° Southwest 203 234 1,900 -77 Descending Washington Center
Fri 09:24:47 PM 37.6333 -77.1500 240° Southwest 210 242 1,900  Level Potomac TRACON
Fri 09:25:48 PM 37.6167 -77.2000 247° West 196 226 1,900  Level Potomac TRACON
Fri 09:26:48 PM 37.5833 -77.2500 230° Southwest 168 193 1,900 -400 Level Potomac TRACON
Fri 09:27:48 PM 37.5667 -77.3000 247° West 139 160 1,100 -700 Descending Potomac TRACON
Fri 09:28:48 PM 37.5333 -77.3167 202° Southwest 119 137 500 -600 Descending Potomac TRACON
Fri 09:30:00 PM 37.5000 -77.3167 233° Southwest  Level FlightAware Approximate
Fri 09:37:00 PM 37.5052 -77.3197 233° Southwest  Level Estimated
Fri 09:38:00 PM 37.5000 -77.3167 233° Southwest  Level FlightAware Approximate

Login

Don't have an account? Register now (free) for customized features, flight alerts, and more!